createdAt,value
2022-12-04T00:01:22.391Z,4.55
2022-12-04T00:03:52.646Z,4.50
2022-12-04T00:06:20.466Z,4.83
2022-12-04T00:08:48.017Z,4.71
2022-12-04T00:11:17.981Z,4.56
2022-12-04T00:13:44.576Z,4.76
2022-12-04T00:16:14.561Z,4.63
2022-12-04T00:18:44.208Z,4.46
2022-12-04T00:21:13.074Z,4.71
2022-12-04T00:23:40.593Z,4.63
2022-12-04T00:26:12.369Z,4.40
2022-12-04T00:28:39.441Z,4.53
2022-12-04T00:31:08.035Z,4.57
2022-12-04T00:33:35.359Z,4.47
2022-12-04T00:36:08.184Z,4.74
2022-12-04T00:38:35.114Z,4.75
2022-12-04T00:41:01.767Z,4.61
2022-12-04T00:43:29.919Z,4.70
2022-12-04T00:45:57.163Z,4.72
2022-12-04T00:48:23.730Z,4.65
2022-12-04T00:50:50.556Z,4.37
2022-12-04T00:53:17.180Z,4.24
2022-12-04T00:55:44.473Z,4.11
2022-12-04T00:58:11.938Z,4.52
2022-12-04T01:00:40.805Z,4.84
2022-12-04T01:03:08.548Z,4.82
2022-12-04T01:05:43.993Z,4.87
2022-12-04T01:08:11.847Z,4.70
2022-12-04T01:10:39.896Z,4.68
2022-12-04T01:13:06.404Z,4.72
2022-12-04T01:15:33.006Z,5.40
2022-12-04T01:17:59.840Z,5.09
2022-12-04T01:20:26.367Z,5.06
2022-12-04T01:22:52.837Z,4.88
2022-12-04T01:25:19.361Z,4.74
2022-12-04T01:27:45.875Z,4.86
2022-12-04T01:30:12.649Z,4.73
2022-12-04T01:32:39.160Z,4.96
2022-12-04T01:35:06.511Z,4.75
2022-12-04T01:37:33.722Z,5.22
2022-12-04T01:40:00.303Z,4.74
2022-12-04T01:42:27.697Z,4.27
2022-12-04T01:45:31.210Z,4.70
2022-12-04T01:48:15.577Z,4.74
2022-12-04T01:50:43.896Z,4.57
2022-12-04T01:53:11.536Z,4.70
2022-12-04T01:55:38.737Z,4.41
2022-12-04T01:58:06.627Z,4.69
2022-12-04T02:00:33.153Z,5.00
2022-12-04T02:03:00.519Z,4.67
2022-12-04T02:05:27.516Z,4.34
2022-12-04T02:07:59.193Z,4.53
2022-12-04T02:10:44.486Z,4.62
2022-12-04T02:13:29.467Z,4.88
2022-12-04T02:16:06.871Z,4.48
2022-12-04T02:19:04.606Z,4.79
2022-12-04T02:21:37.575Z,4.70
2022-12-04T02:25:02.723Z,4.23
2022-12-04T02:27:41.178Z,4.70
2022-12-04T02:30:13.976Z,4.77
2022-12-04T02:32:45.846Z,4.70
2022-12-04T02:35:19.882Z,4.98
2022-12-04T02:37:52.652Z,4.74
2022-12-04T02:40:35.598Z,4.89
2022-12-04T02:43:29.250Z,5.02
2022-12-04T02:46:01.428Z,4.52
2022-12-04T02:48:31.792Z,4.90
2022-12-04T02:51:01.740Z,4.75
2022-12-04T02:53:43.239Z,4.82
2022-12-04T02:56:16.187Z,4.66
2022-12-04T02:59:07.598Z,4.68
2022-12-04T03:01:43.453Z,5.23
2022-12-04T03:04:12.515Z,4.62
2022-12-04T03:06:41.783Z,4.69
2022-12-04T03:09:44.482Z,4.50
2022-12-04T03:12:16.441Z,4.97
2022-12-04T03:14:50.110Z,4.85
2022-12-04T03:17:23.813Z,4.88
2022-12-04T03:19:56.363Z,5.07
2022-12-04T03:22:25.091Z,4.60
2022-12-04T03:24:54.002Z,4.84
2022-12-04T03:27:30.945Z,4.87
2022-12-04T03:30:03.841Z,4.72
2022-12-04T03:32:55.945Z,4.39
2022-12-04T03:35:29.395Z,4.34
2022-12-04T03:38:04.783Z,4.83
2022-12-04T03:40:38.935Z,4.63
2022-12-04T03:43:26.292Z,4.40
2022-12-04T03:45:59.733Z,4.66
2022-12-04T03:48:53.908Z,4.05
2022-12-04T03:51:34.109Z,4.56
2022-12-04T03:54:28.214Z,4.79
2022-12-04T03:57:00.699Z,4.57
2022-12-04T03:59:34.360Z,4.53
2022-12-04T04:02:04.631Z,4.67
2022-12-04T04:04:35.428Z,4.28
2022-12-04T04:07:09.400Z,4.49
2022-12-04T04:09:39.117Z,4.58
2022-12-04T04:12:11.781Z,4.51
2022-12-04T04:15:15.799Z,4.27
2022-12-04T04:18:03.610Z,4.29
2022-12-04T04:21:11.554Z,4.11
2022-12-04T04:24:01.836Z,4.64
2022-12-04T04:26:35.243Z,4.30
2022-12-04T04:29:01.822Z,4.64
2022-12-04T04:31:42.582Z,4.44
2022-12-04T04:34:15.122Z,4.18
2022-12-04T04:36:50.376Z,4.74
2022-12-04T04:39:25.450Z,4.56
2022-12-04T04:42:04.824Z,4.33
2022-12-04T04:45:06.584Z,4.13
2022-12-04T04:47:42.326Z,4.16
2022-12-04T04:50:11.750Z,4.29
2022-12-04T04:52:41.017Z,4.21
2022-12-04T04:55:09.160Z,4.03
2022-12-04T04:57:36.888Z,4.07
2022-12-04T05:00:23.053Z,4.27
2022-12-04T05:02:50.278Z,4.36
2022-12-04T05:05:17.608Z,4.39
2022-12-04T05:07:44.234Z,3.92
2022-12-04T05:10:10.958Z,4.42
2022-12-04T05:12:37.484Z,4.38
2022-12-04T05:15:04.342Z,4.33
2022-12-04T05:17:30.885Z,4.42
2022-12-04T05:19:57.937Z,4.28
2022-12-04T05:22:35.982Z,3.77
2022-12-04T05:25:04.551Z,3.95
2022-12-04T05:27:31.831Z,4.46
2022-12-04T05:29:58.974Z,4.09
2022-12-04T05:32:28.979Z,4.22
2022-12-04T05:34:57.872Z,3.85
2022-12-04T05:37:24.777Z,4.34
2022-12-04T05:39:51.541Z,3.88
2022-12-04T05:42:18.117Z,3.81
2022-12-04T05:44:44.734Z,3.99
2022-12-04T05:47:11.442Z,3.57
2022-12-04T05:49:37.961Z,3.76
2022-12-04T05:52:05.639Z,3.84
2022-12-04T05:54:32.218Z,3.92
2022-12-04T05:56:59.153Z,3.53
2022-12-04T05:59:25.654Z,3.89
2022-12-04T06:01:52.331Z,3.80
2022-12-04T06:04:18.898Z,3.40
2022-12-04T06:06:45.476Z,3.71
2022-12-04T06:09:12.541Z,3.89
2022-12-04T06:11:41.637Z,3.40
2022-12-04T06:14:10.879Z,3.46
2022-12-04T06:16:40.470Z,3.85
2022-12-04T06:19:10.468Z,3.64
2022-12-04T06:21:39.852Z,3.46
2022-12-04T06:24:07.326Z,3.93
2022-12-04T06:26:34.275Z,3.94
2022-12-04T06:29:00.919Z,3.64
2022-12-04T06:31:29.215Z,3.39
2022-12-04T06:33:57.558Z,3.88
2022-12-04T06:36:24.944Z,3.77
2022-12-04T06:38:55.815Z,3.78
2022-12-04T06:41:24.135Z,3.69
2022-12-04T06:43:51.777Z,3.69
2022-12-04T06:46:21.365Z,3.42
2022-12-04T06:48:48.414Z,3.61
2022-12-04T06:51:29.727Z,3.72
2022-12-04T06:53:57.232Z,3.51
2022-12-04T06:56:26.307Z,3.64
2022-12-04T06:58:55.008Z,3.78
2022-12-04T07:01:24.246Z,3.59
2022-12-04T07:03:51.936Z,3.79
2022-12-04T07:06:27.429Z,3.71
2022-12-04T07:08:58.854Z,3.95
2022-12-04T07:11:25.695Z,4.32
2022-12-04T07:13:52.480Z,3.65
2022-12-04T07:16:21.191Z,3.88
2022-12-04T07:18:50.364Z,3.77
2022-12-04T07:21:19.789Z,3.46
2022-12-04T07:23:50.047Z,3.66
2022-12-04T07:26:17.104Z,3.73
2022-12-04T07:28:45.174Z,3.58
2022-12-04T07:31:14.893Z,3.74
2022-12-04T07:33:41.736Z,3.95
2022-12-04T07:36:11.123Z,3.75
2022-12-04T07:38:37.567Z,4.04
2022-12-04T07:41:06.370Z,4.09
2022-12-04T07:43:33.564Z,3.54
2022-12-04T07:46:06.078Z,3.85
2022-12-04T07:48:33.587Z,3.73
2022-12-04T07:51:08.779Z,4.11
2022-12-04T07:53:35.609Z,4.02
2022-12-04T07:56:03.425Z,4.42
2022-12-04T07:58:29.931Z,3.68
2022-12-04T08:01:12.284Z,3.82
2022-12-04T08:03:46.692Z,4.16
2022-12-04T08:06:14.574Z,3.98
2022-12-04T08:08:41.109Z,3.99
2022-12-04T08:11:09.856Z,4.19
2022-12-04T08:13:36.910Z,4.45
2022-12-04T08:16:04.854Z,4.02
2022-12-04T08:18:32.007Z,4.26
2022-12-04T08:21:10.060Z,4.58
2022-12-04T08:23:37.603Z,4.53
2022-12-04T08:26:05.193Z,3.90
2022-12-04T08:28:32.373Z,4.41
2022-12-04T08:31:12.423Z,3.94
2022-12-04T08:33:39.713Z,4.23
2022-12-04T08:36:10.455Z,3.85
2022-12-04T08:38:36.989Z,4.00
2022-12-04T08:41:06.248Z,4.20
2022-12-04T08:43:33.058Z,3.80
2022-12-04T08:46:01.649Z,4.56
2022-12-04T08:48:28.682Z,3.99
2022-12-04T08:50:55.875Z,4.19
2022-12-04T08:53:23.002Z,4.31
2022-12-04T08:55:49.809Z,4.35
2022-12-04T08:58:16.553Z,3.86
2022-12-04T09:00:43.319Z,4.33
2022-12-04T09:03:14.832Z,4.19
2022-12-04T09:05:42.028Z,4.42
2022-12-04T09:08:09.008Z,4.19
2022-12-04T09:10:36.883Z,4.17
2022-12-04T09:13:04.304Z,4.45
2022-12-04T09:15:31.156Z,4.05
2022-12-04T09:17:58.348Z,4.06
2022-12-04T09:20:25.352Z,4.21
2022-12-04T09:23:04.061Z,4.63
2022-12-04T09:25:31.550Z,4.02
2022-12-04T09:27:58.204Z,4.44
2022-12-04T09:30:24.754Z,4.35
2022-12-04T09:32:51.345Z,4.21
2022-12-04T09:35:17.930Z,4.53
2022-12-04T09:37:44.474Z,4.57
2022-12-04T09:40:38.482Z,4.32
2022-12-04T09:43:17.235Z,4.72
2022-12-04T09:45:51.631Z,4.51
2022-12-04T09:48:20.274Z,4.70
2022-12-04T09:50:48.744Z,4.81
2022-12-04T09:53:22.458Z,4.34
2022-12-04T09:55:59.538Z,4.82
2022-12-04T09:58:38.099Z,4.86
2022-12-04T10:01:05.476Z,4.70
2022-12-04T10:03:32.370Z,4.95
2022-12-04T10:06:14.320Z,4.63
2022-12-04T10:08:43.890Z,4.80
2022-12-04T10:11:18.392Z,5.25
2022-12-04T10:14:03.818Z,4.64
2022-12-04T10:16:45.871Z,4.72
2022-12-04T10:19:31.286Z,4.78
2022-12-04T10:22:10.115Z,4.85
2022-12-04T10:24:51.094Z,4.73
2022-12-04T10:27:28.794Z,4.97
2022-12-04T10:30:24.138Z,4.46
2022-12-04T10:33:00.830Z,5.04
2022-12-04T10:35:30.730Z,5.26
2022-12-04T10:38:04.667Z,5.22
2022-12-04T10:40:47.206Z,4.88
2022-12-04T10:43:42.851Z,4.65
2022-12-04T10:46:35.696Z,4.97
2022-12-04T10:49:09.417Z,5.38
2022-12-04T10:51:40.339Z,4.64
2022-12-04T10:54:18.954Z,5.05
2022-12-04T10:56:59.705Z,5.04
2022-12-04T10:59:27.606Z,4.75
2022-12-04T11:02:18.160Z,4.88
2022-12-04T11:04:55.864Z,4.69
2022-12-04T11:07:45.292Z,5.42
2022-12-04T11:10:23.626Z,5.02
2022-12-04T11:13:01.202Z,4.98
2022-12-04T11:15:29.390Z,5.15
2022-12-04T11:18:07.643Z,4.77
2022-12-04T11:20:34.590Z,4.68
2022-12-04T11:23:04.996Z,5.27
2022-12-04T11:25:38.060Z,5.30
2022-12-04T11:28:05.105Z,5.05
2022-12-04T11:30:35.968Z,5.35
2022-12-04T11:33:04.609Z,5.39
2022-12-04T11:35:32.459Z,5.20
2022-12-04T11:38:17.055Z,5.04
2022-12-04T11:40:50.280Z,5.42
2022-12-04T11:43:18.238Z,4.96
2022-12-04T11:46:05.146Z,5.35
2022-12-04T11:48:40.937Z,5.31
2022-12-04T11:51:41.425Z,5.44
2022-12-04T11:54:23.492Z,5.34
2022-12-04T11:57:10.790Z,5.28
2022-12-04T11:59:46.521Z,5.79
2022-12-04T12:02:38.283Z,5.44
2022-12-04T12:05:10.873Z,5.74
2022-12-04T12:07:51.545Z,5.41
2022-12-04T12:10:38.850Z,5.39
2022-12-04T12:13:32.203Z,5.67
2022-12-04T12:16:03.231Z,5.76
2022-12-04T12:18:51.505Z,5.12
2022-12-04T12:21:25.075Z,5.36
2022-12-04T12:24:00.491Z,5.77
2022-12-04T12:26:40.235Z,5.62
2022-12-04T12:29:10.171Z,5.33
2022-12-04T12:31:39.766Z,5.58
2022-12-04T12:34:19.712Z,5.46
2022-12-04T12:36:50.670Z,5.54
2022-12-04T12:39:24.012Z,5.11
2022-12-04T12:41:53.728Z,5.51
2022-12-04T12:44:34.565Z,5.32
2022-12-04T12:47:08.006Z,5.48
2022-12-04T12:50:00.491Z,5.81
2022-12-04T12:52:53.696Z,5.09
2022-12-04T12:55:25.647Z,5.65
2022-12-04T12:58:05.330Z,6.17
2022-12-04T13:00:37.302Z,5.47
2022-12-04T13:03:12.160Z,5.47
2022-12-04T13:05:46.355Z,5.44
2022-12-04T13:08:29.706Z,5.38
2022-12-04T13:11:07.073Z,5.52
2022-12-04T13:13:39.169Z,5.63
2022-12-04T13:16:11.936Z,5.48
2022-12-04T13:18:49.384Z,5.49
2022-12-04T13:21:30.763Z,5.71
2022-12-04T13:24:24.408Z,5.63
2022-12-04T13:27:17.663Z,5.19
2022-12-04T13:30:17.613Z,5.05
2022-12-04T13:32:59.609Z,5.53
2022-12-04T13:35:44.779Z,5.48
2022-12-04T13:38:51.567Z,5.85
2022-12-04T13:41:24.688Z,6.16
2022-12-04T13:43:54.826Z,5.99
2022-12-04T13:46:32.037Z,5.81
2022-12-04T13:49:22.095Z,5.40
2022-12-04T13:51:49.317Z,5.43
2022-12-04T13:54:15.878Z,5.69
2022-12-04T13:56:45.517Z,5.51
2022-12-04T13:59:30.942Z,5.63
2022-12-04T14:02:03.635Z,5.77
2022-12-04T14:04:40.405Z,5.04
2022-12-04T14:07:07.400Z,4.82
2022-12-04T14:09:37.519Z,5.39
2022-12-04T14:12:06.977Z,5.35
2022-12-04T14:14:42.328Z,5.62
2022-12-04T14:17:20.248Z,5.51
2022-12-04T14:19:53.280Z,5.27
2022-12-04T14:22:46.279Z,5.36
2022-12-04T14:25:14.019Z,5.20
2022-12-04T14:27:40.479Z,5.30
2022-12-04T14:30:38.181Z,5.33
2022-12-04T14:33:22.384Z,5.33
2022-12-04T14:36:04.418Z,5.33
2022-12-04T14:38:43.148Z,5.00
2022-12-04T14:41:10.178Z,4.75
2022-12-04T14:43:44.306Z,5.26
2022-12-04T14:46:23.061Z,5.75
2022-12-04T14:49:00.409Z,5.67
2022-12-04T14:51:38.044Z,5.32
2022-12-04T14:54:22.273Z,5.11
2022-12-04T14:57:15.170Z,4.67
2022-12-04T14:59:45.294Z,5.00
2022-12-04T15:02:16.626Z,4.75
2022-12-04T15:04:46.300Z,5.25
2022-12-04T15:07:28.386Z,5.40
2022-12-04T15:10:18.644Z,5.36
2022-12-04T15:12:51.619Z,5.26
2022-12-04T15:15:25.268Z,5.27
2022-12-04T15:18:16.661Z,4.93
2022-12-04T15:20:49.047Z,5.43
2022-12-04T15:23:18.626Z,5.64
2022-12-04T15:25:53.938Z,4.98
2022-12-04T15:28:20.576Z,5.04
2022-12-04T15:30:48.934Z,4.85
2022-12-04T15:33:22.185Z,4.97
2022-12-04T15:36:00.816Z,4.99
2022-12-04T15:38:27.806Z,5.34
2022-12-04T15:40:57.570Z,5.49
2022-12-04T15:43:43.809Z,4.92
2022-12-04T15:46:15.191Z,5.34
2022-12-04T15:48:47.571Z,5.51
2022-12-04T15:51:16.575Z,5.41
2022-12-04T15:53:45.754Z,5.53
2022-12-04T15:56:21.995Z,5.59
2022-12-04T15:58:58.304Z,5.65
2022-12-04T16:01:25.167Z,5.42
2022-12-04T16:04:22.519Z,5.44
2022-12-04T16:06:51.537Z,5.54
2022-12-04T16:09:22.422Z,5.68
2022-12-04T16:11:58.333Z,5.76
2022-12-04T16:14:24.907Z,5.68
2022-12-04T16:16:54.023Z,5.92
2022-12-04T16:19:33.972Z,5.52
2022-12-04T16:22:03.509Z,5.14
2022-12-04T16:24:30.044Z,5.31
2022-12-04T16:26:58.659Z,5.35
2022-12-04T16:29:25.195Z,5.32
2022-12-04T16:31:51.801Z,5.25
2022-12-04T16:34:18.516Z,5.17
2022-12-04T16:36:45.198Z,5.15
2022-12-04T16:39:11.727Z,5.10
2022-12-04T16:41:38.384Z,5.31
2022-12-04T16:44:13.386Z,5.26
2022-12-04T16:46:40.051Z,5.72
2022-12-04T16:49:07.723Z,5.52
2022-12-04T16:51:37.408Z,6.04
2022-12-04T16:54:04.008Z,5.66
2022-12-04T16:56:30.526Z,5.43
2022-12-04T16:58:57.022Z,5.40
2022-12-04T17:01:26.240Z,5.24
2022-12-04T17:03:53.288Z,5.52
2022-12-04T17:06:20.267Z,4.89
2022-12-04T17:08:46.879Z,5.35
2022-12-04T17:11:15.135Z,5.24
2022-12-04T17:13:42.420Z,4.79
2022-12-04T17:16:12.020Z,5.18
2022-12-04T17:18:41.214Z,5.38
2022-12-04T17:21:09.513Z,4.76
2022-12-04T17:23:36.931Z,4.90
2022-12-04T17:26:12.116Z,4.78
2022-12-04T17:28:39.271Z,5.11
2022-12-04T17:31:14.287Z,5.21
2022-12-04T17:33:41.252Z,4.91
2022-12-04T17:36:14.603Z,4.93
2022-12-04T17:38:41.800Z,4.70
2022-12-04T17:41:09.907Z,5.07
2022-12-04T17:43:36.671Z,4.70
2022-12-04T17:46:08.584Z,4.90
2022-12-04T17:48:35.234Z,4.90
2022-12-04T17:51:20.287Z,4.85
2022-12-04T17:53:47.337Z,5.03
2022-12-04T17:56:20.030Z,4.87
2022-12-04T17:58:47.284Z,4.50
2022-12-04T18:01:16.315Z,4.79
2022-12-04T18:03:43.833Z,4.86
2022-12-04T18:06:24.537Z,5.23
2022-12-04T18:08:51.862Z,4.84
2022-12-04T18:11:20.784Z,5.02
2022-12-04T18:13:55.936Z,5.00
2022-12-04T18:16:22.562Z,5.01
2022-12-04T18:18:50.665Z,4.75
2022-12-04T18:21:17.264Z,4.80
2022-12-04T18:23:46.494Z,4.92
2022-12-04T18:26:21.866Z,4.49
2022-12-04T18:28:49.218Z,5.10
2022-12-04T18:31:18.429Z,4.98
2022-12-04T18:33:45.520Z,4.63
2022-12-04T18:36:18.322Z,4.48
2022-12-04T18:38:45.091Z,4.74
2022-12-04T18:41:13.653Z,4.81
2022-12-04T18:43:42.887Z,4.87
2022-12-04T18:46:13.139Z,4.71
2022-12-04T18:48:40.485Z,4.76
2022-12-04T18:51:31.331Z,5.38
2022-12-04T18:54:01.101Z,5.36
2022-12-04T18:56:28.618Z,5.19
2022-12-04T18:59:00.578Z,5.42
2022-12-04T19:01:28.235Z,5.54
2022-12-04T19:03:57.518Z,4.91
2022-12-04T19:06:32.199Z,5.38
2022-12-04T19:09:00.867Z,5.18
2022-12-04T19:11:28.359Z,5.23
2022-12-04T19:13:54.952Z,4.90
2022-12-04T19:16:21.616Z,5.14
2022-12-04T19:18:48.308Z,5.11
2022-12-04T19:21:16.142Z,5.26
2022-12-04T19:23:48.111Z,5.09
2022-12-04T19:26:14.785Z,4.99
2022-12-04T19:28:41.376Z,5.00
2022-12-04T19:31:16.884Z,5.04
2022-12-04T19:33:43.581Z,4.88
2022-12-04T19:36:11.686Z,5.09
2022-12-04T19:38:38.208Z,5.02
2022-12-04T19:41:14.337Z,5.23
2022-12-04T19:43:47.630Z,5.10
2022-12-04T19:46:17.249Z,4.97
2022-12-04T19:48:46.168Z,5.31
2022-12-04T19:51:15.225Z,5.47
2022-12-04T19:53:43.066Z,5.40
2022-12-04T19:56:12.544Z,5.25
2022-12-04T19:58:39.457Z,5.42
2022-12-04T20:01:08.106Z,5.17
2022-12-04T20:03:35.247Z,5.46
2022-12-04T20:06:07.864Z,4.85
2022-12-04T20:08:34.627Z,5.11
2022-12-04T20:11:03.057Z,4.92
2022-12-04T20:13:29.685Z,5.24
2022-12-04T20:16:00.314Z,5.30
2022-12-04T20:18:26.852Z,5.31
2022-12-04T20:20:57.743Z,5.46
2022-12-04T20:23:24.302Z,5.15
2022-12-04T20:25:51.360Z,5.08
2022-12-04T20:28:18.064Z,5.38
2022-12-04T20:30:44.857Z,5.20
2022-12-04T20:33:11.788Z,5.19
2022-12-04T20:35:39.246Z,5.34
2022-12-04T20:38:06.449Z,5.44
2022-12-04T20:40:33.811Z,5.57
2022-12-04T20:43:00.402Z,5.85
2022-12-04T20:45:27.020Z,5.91
2022-12-04T20:47:54.857Z,5.89
2022-12-04T20:50:21.595Z,5.92
2022-12-04T20:52:48.369Z,5.99
2022-12-04T20:55:14.937Z,5.81
2022-12-04T20:57:41.552Z,5.68
2022-12-04T21:00:08.775Z,5.29
2022-12-04T21:02:35.981Z,5.55
2022-12-04T21:05:02.698Z,5.74
2022-12-04T21:07:29.273Z,5.22
2022-12-04T21:09:56.091Z,5.39
2022-12-04T21:12:43.263Z,5.31
2022-12-04T21:15:29.128Z,5.33
2022-12-04T21:17:55.681Z,5.52
2022-12-04T21:20:22.279Z,5.94
2022-12-04T21:22:48.816Z,5.31
2022-12-04T21:25:15.445Z,5.33
2022-12-04T21:27:42.000Z,5.48
2022-12-04T21:30:09.330Z,5.85
2022-12-04T21:32:35.842Z,5.69
2022-12-04T21:35:02.807Z,5.68
2022-12-04T21:37:29.556Z,5.88
2022-12-04T21:39:56.367Z,5.77
2022-12-04T21:42:32.711Z,5.63
2022-12-04T21:45:05.871Z,5.20
2022-12-04T21:47:33.473Z,5.06
2022-12-04T21:50:00.389Z,5.09
2022-12-04T21:52:27.263Z,5.00
2022-12-04T21:54:54.647Z,5.19
2022-12-04T21:57:22.170Z,5.35
2022-12-04T21:59:51.115Z,5.53
2022-12-04T22:02:17.637Z,5.42
2022-12-04T22:04:44.411Z,5.50
2022-12-04T22:07:11.065Z,5.55
2022-12-04T22:09:38.429Z,5.56
2022-12-04T22:12:26.376Z,5.33
2022-12-04T22:14:51.977Z,5.14
2022-12-04T22:17:18.554Z,5.38
2022-12-04T22:19:45.088Z,5.34
2022-12-04T22:22:11.651Z,5.42
2022-12-04T22:24:38.210Z,5.25
2022-12-04T22:27:04.779Z,5.23
2022-12-04T22:29:49.667Z,5.16
2022-12-04T22:32:17.698Z,5.34
2022-12-04T22:34:44.309Z,5.28
2022-12-04T22:37:11.002Z,5.39
2022-12-04T22:39:37.616Z,5.38
2022-12-04T22:42:04.359Z,5.33
2022-12-04T22:44:31.005Z,5.48
2022-12-04T22:46:57.656Z,5.33
2022-12-04T22:49:24.349Z,5.45
2022-12-04T22:51:50.923Z,5.14
2022-12-04T22:54:17.494Z,5.29
2022-12-04T22:56:44.217Z,5.36
2022-12-04T22:59:10.787Z,5.21
2022-12-04T23:01:37.347Z,5.32
2022-12-04T23:04:03.907Z,5.27
2022-12-04T23:06:31.887Z,5.16
2022-12-04T23:09:02.560Z,5.19
2022-12-04T23:11:29.827Z,4.98
2022-12-04T23:14:01.654Z,5.19
2022-12-04T23:16:30.643Z,5.17
2022-12-04T23:18:57.868Z,5.22
2022-12-04T23:21:25.308Z,5.11
2022-12-04T23:23:54.696Z,5.06
2022-12-04T23:26:26.029Z,5.11
2022-12-04T23:28:52.638Z,5.01
2022-12-04T23:31:21.650Z,5.22
2022-12-04T23:33:48.623Z,5.14
2022-12-04T23:36:15.925Z,5.27
2022-12-04T23:38:44.456Z,5.19
2022-12-04T23:41:16.813Z,5.62
2022-12-04T23:43:44.435Z,5.18
2022-12-04T23:46:12.715Z,5.14
2022-12-04T23:48:41.200Z,5.06
2022-12-04T23:51:08.419Z,5.01
2022-12-04T23:53:35.254Z,5.18
2022-12-04T23:56:09.910Z,5.04
2022-12-04T23:58:36.831Z,5.40
